createdAt,value
2023-01-29T00:05:35.272Z,54.38
2023-01-29T00:15:37.501Z,56.69
2023-01-29T00:25:39.619Z,55.30
2023-01-29T00:35:41.978Z,55.52
2023-01-29T00:45:44.344Z,53.14
2023-01-29T00:55:46.559Z,54.09
2023-01-29T01:05:49.635Z,53.69
2023-01-29T01:15:51.946Z,54.15
2023-01-29T01:25:54.172Z,53.38
2023-01-29T01:36:02.009Z,55.63
2023-01-29T01:46:04.574Z,54.98
2023-01-29T01:56:13.866Z,54.48
2023-01-29T02:06:35.145Z,53.16
2023-01-29T02:16:37.928Z,53.80
2023-01-29T02:26:55.945Z,56.23
2023-01-29T02:37:06.856Z,56.74
2023-01-29T02:47:42.974Z,55.27
2023-01-29T02:57:46.911Z,54.74
2023-01-29T03:07:54.268Z,55.69
2023-01-29T03:18:15.956Z,54.43
2023-01-29T03:28:36.724Z,58.49
2023-01-29T03:38:40.168Z,56.59
2023-01-29T03:48:55.661Z,57.19
2023-01-29T03:59:14.951Z,55.73
2023-01-29T04:10:02.004Z,53.11
2023-01-29T04:20:09.785Z,53.77
2023-01-29T04:30:30.998Z,54.21
2023-01-29T04:40:55.355Z,54.52
2023-01-29T04:50:57.612Z,54.75
2023-01-29T05:01:01.090Z,55.46
2023-01-29T05:11:03.266Z,54.20
2023-01-29T05:21:07.813Z,55.33
2023-01-29T05:31:10.051Z,54.41
2023-01-29T05:41:12.349Z,54.86
2023-01-29T05:51:14.642Z,54.77
2023-01-29T06:01:23.340Z,55.36
2023-01-29T06:11:25.927Z,53.95
2023-01-29T06:21:28.127Z,53.89
2023-01-29T06:31:39.938Z,52.93
2023-01-29T06:41:42.443Z,54.56
2023-01-29T06:51:44.700Z,54.00
2023-01-29T07:01:47.010Z,53.46
2023-01-29T07:11:49.519Z,53.28
2023-01-29T07:21:51.785Z,53.67
2023-01-29T07:31:54.115Z,58.42
2023-01-29T07:41:56.495Z,54.44
2023-01-29T07:51:58.724Z,58.20
2023-01-29T08:02:01.036Z,56.15
2023-01-29T08:12:03.730Z,58.35
2023-01-29T08:22:06.373Z,56.51
2023-01-29T08:32:11.633Z,55.37
2023-01-29T08:42:14.843Z,56.29
2023-01-29T08:52:16.964Z,56.69
2023-01-29T09:02:19.216Z,58.53
2023-01-29T09:12:21.326Z,56.09
2023-01-29T09:22:23.408Z,56.03
2023-01-29T09:32:52.077Z,55.31
2023-01-29T09:42:56.788Z,54.87
2023-01-29T09:53:02.991Z,56.06
2023-01-29T10:03:11.121Z,57.82
2023-01-29T10:13:52.237Z,56.56
2023-01-29T10:24:07.211Z,54.51
2023-01-29T10:34:28.892Z,54.94
2023-01-29T10:44:57.121Z,53.19
2023-01-29T10:55:17.965Z,55.12
2023-01-29T11:05:40.474Z,55.50
2023-01-29T11:15:43.905Z,54.02
2023-01-29T11:25:52.760Z,55.46
2023-01-29T11:35:57.588Z,56.29
2023-01-29T11:46:03.058Z,53.04
2023-01-29T11:56:16.796Z,54.99
2023-01-29T12:06:24.435Z,53.21
2023-01-29T12:16:33.127Z,56.89
2023-01-29T12:26:36.385Z,54.74
2023-01-29T12:37:19.352Z,54.34
2023-01-29T12:47:30.341Z,55.37
2023-01-29T12:57:51.497Z,55.67
2023-01-29T13:08:07.715Z,53.42
2023-01-29T13:18:31.555Z,51.54
2023-01-29T13:28:33.771Z,51.47
2023-01-29T13:38:36.527Z,51.55
2023-01-29T13:48:43.553Z,51.81
2023-01-29T13:58:45.637Z,51.29
2023-01-29T14:08:47.917Z,51.64
2023-01-29T14:19:01.615Z,51.29
2023-01-29T14:29:16.467Z,52.34
2023-01-29T14:39:44.293Z,52.62
2023-01-29T14:49:50.679Z,51.29
2023-01-29T14:59:58.700Z,51.49
2023-01-29T15:10:22.263Z,52.27
2023-01-29T15:20:31.088Z,52.94
2023-01-29T15:30:35.568Z,52.29
2023-01-29T15:40:37.772Z,52.67
2023-01-29T15:50:41.532Z,53.01
2023-01-29T16:00:54.927Z,52.93
2023-01-29T16:10:58.752Z,51.91
2023-01-29T16:21:05.666Z,53.49
2023-01-29T16:31:08.190Z,54.07
2023-01-29T16:41:36.030Z,54.06
2023-01-29T16:51:39.301Z,54.75
2023-01-29T17:01:41.869Z,55.25
2023-01-29T17:11:44.169Z,56.51
2023-01-29T17:21:47.145Z,55.69
2023-01-29T17:31:49.430Z,54.94
2023-01-29T17:41:53.913Z,55.86
2023-01-29T17:51:57.193Z,55.34
2023-01-29T18:01:59.907Z,56.36
2023-01-29T18:12:02.122Z,55.13
2023-01-29T18:22:04.318Z,56.70
2023-01-29T18:32:07.045Z,57.83
2023-01-29T18:42:09.399Z,58.30
2023-01-29T18:52:11.727Z,58.74
2023-01-29T19:02:15.833Z,58.32
2023-01-29T19:12:18.205Z,61.33
2023-01-29T19:22:20.535Z,62.75
2023-01-29T19:32:22.889Z,65.06
2023-01-29T19:42:28.213Z,64.23
2023-01-29T19:52:50.388Z,61.93
2023-01-29T20:02:53.400Z,62.80
2023-01-29T20:12:55.525Z,59.13
2023-01-29T20:22:57.921Z,61.32
2023-01-29T20:33:00.412Z,61.15
2023-01-29T20:43:02.761Z,62.64
2023-01-29T20:53:05.088Z,61.72
2023-01-29T21:03:08.927Z,60.87
2023-01-29T21:13:12.311Z,62.08
2023-01-29T21:23:14.644Z,61.13
2023-01-29T21:33:17.858Z,64.77
2023-01-29T21:43:21.216Z,63.82
2023-01-29T21:53:23.584Z,64.63
2023-01-29T22:03:25.919Z,64.85
2023-01-29T22:13:28.036Z,62.95
2023-01-29T22:23:31.940Z,65.11
2023-01-29T22:33:34.386Z,65.91
2023-01-29T22:43:36.731Z,67.21
2023-01-29T22:53:40.897Z,65.70
2023-01-29T23:03:44.432Z,68.26
2023-01-29T23:13:52.082Z,68.79
2023-01-29T23:23:58.412Z,68.21
2023-01-29T23:34:02.050Z,68.07
2023-01-29T23:44:05.428Z,69.27
2023-01-29T23:54:07.877Z,67.25
